Terminal Aerodrome Forecast
Issued by NWS Quad Cities IA IL

Home | Current Version | Previous Version | Text Only | Print | Product List | Glossary On
Versions: 1 2 3 4 5 6 7 8 9 10 11 12 13 14 15 16 17 18 19 20 21 22 23 24 25
000
FTUS43 KDVN 030500 RRA
TAFDBQ
TAF
KDBQ 030547Z 0306/0406 16010KT P6SM OVC080
     FM031000 16014KT P6SM VCSH OVC035
      TEMPO 0310/0314 1 1/2SM -SN BR OVC015
     FM031400 17016G21KT 3SM -SNPL BR OVC010
     FM031700 22011KT 5SM BR OVC015
     FM032100 28014KT P6SM OVC022=

USA.gov is the U.S. government's official web portal to all federal, state and local government web resources and services.